createdAt,value
2023-02-24T00:02:30.005Z,5.75
2023-02-24T00:07:33.745Z,5.77
2023-02-24T00:12:37.361Z,5.80
2023-02-24T00:17:41.708Z,5.80
2023-02-24T00:22:45.724Z,5.82
2023-02-24T00:27:49.337Z,5.79
2023-02-24T00:32:52.898Z,5.79
2023-02-24T00:37:56.685Z,5.79
2023-02-24T00:43:00.303Z,5.78
2023-02-24T00:48:04.949Z,5.79
2023-02-24T00:53:08.569Z,5.79
2023-02-24T00:58:12.186Z,5.78
2023-02-24T01:03:15.699Z,5.79
2023-02-24T01:08:22.145Z,5.85
2023-02-24T01:13:25.596Z,5.81
2023-02-24T01:18:31.365Z,5.94
2023-02-24T01:23:35.192Z,6.12
2023-02-24T01:28:38.904Z,6.12
2023-02-24T01:33:45.186Z,6.07
2023-02-24T01:38:52.391Z,6.12
2023-02-24T01:44:03.795Z,6.11
2023-02-24T01:49:37.794Z,6.12
2023-02-24T01:54:49.639Z,6.17
2023-02-24T01:59:55.114Z,6.15
2023-02-24T02:05:05.827Z,6.17
2023-02-24T02:10:10.629Z,6.19
2023-02-24T02:15:20.520Z,6.16
2023-02-24T02:20:27.386Z,6.15
2023-02-24T02:25:55.713Z,6.24
2023-02-24T02:31:40.294Z,6.26
2023-02-24T02:36:54.456Z,6.28
2023-02-24T02:42:25.804Z,6.27
2023-02-24T02:47:43.468Z,6.28
2023-02-24T02:52:57.006Z,6.24
2023-02-24T02:58:05.240Z,6.21
2023-02-24T03:03:14.675Z,6.21
2023-02-24T03:08:23.816Z,6.21
2023-02-24T03:13:30.711Z,6.19
2023-02-24T03:18:39.550Z,6.21
2023-02-24T03:23:51.158Z,6.23
2023-02-24T03:29:06.341Z,6.23
2023-02-24T03:34:19.178Z,6.25
2023-02-24T03:39:23.925Z,6.26
2023-02-24T03:44:29.203Z,6.19
2023-02-24T03:49:32.592Z,6.15
2023-02-24T03:55:02.337Z,6.15
2023-02-24T04:00:34.510Z,6.17
2023-02-24T04:05:57.888Z,6.17
2023-02-24T04:11:10.522Z,6.16
2023-02-24T04:16:29.210Z,6.15
2023-02-24T04:21:34.482Z,6.17
2023-02-24T04:26:42.933Z,6.16
2023-02-24T04:32:02.993Z,6.15
2023-02-24T04:37:06.713Z,6.15
2023-02-24T04:42:11.241Z,6.14
2023-02-24T04:47:14.862Z,6.11
2023-02-24T04:52:21.042Z,6.09
2023-02-24T04:57:25.482Z,6.07
2023-02-24T05:02:28.991Z,6.06
2023-02-24T05:07:32.508Z,6.06
2023-02-24T05:12:35.922Z,6.04
2023-02-24T05:17:40.993Z,6.01
2023-02-24T05:22:44.495Z,6.01
2023-02-24T05:27:48.014Z,6.05
2023-02-24T05:32:54.490Z,6.03
2023-02-24T05:37:59.375Z,6.02
2023-02-24T05:43:05.117Z,5.99
2023-02-24T05:48:09.332Z,6.02
2023-02-24T05:53:16.026Z,6.09
2023-02-24T05:58:19.644Z,6.09
2023-02-24T06:03:31.243Z,6.11
2023-02-24T06:08:42.717Z,6.15
2023-02-24T06:13:50.217Z,6.19
2023-02-24T06:18:56.845Z,6.23
2023-02-24T06:24:01.179Z,6.27
2023-02-24T06:29:05.829Z,6.31
2023-02-24T06:34:11.298Z,6.37
2023-02-24T06:39:15.232Z,6.43
2023-02-24T06:44:19.674Z,6.46
2023-02-24T06:49:23.271Z,6.43
2023-02-24T06:54:31.170Z,6.41
2023-02-24T06:59:34.611Z,6.42
2023-02-24T07:04:44.016Z,6.46
2023-02-24T07:09:47.772Z,6.49
2023-02-24T07:14:51.389Z,6.44
2023-02-24T07:19:54.910Z,6.46
2023-02-24T07:25:01.804Z,6.53
2023-02-24T07:30:10.137Z,6.56
2023-02-24T07:35:14.735Z,6.55
2023-02-24T07:40:22.237Z,6.58
2023-02-24T07:45:25.843Z,6.69
2023-02-24T07:50:33.113Z,6.77
2023-02-24T07:55:36.913Z,6.82
2023-02-24T08:00:59.703Z,6.84
2023-02-24T08:06:15.792Z,6.98
2023-02-24T08:11:25.252Z,7.10
2023-02-24T08:16:39.738Z,7.27
2023-02-24T08:21:47.765Z,7.44
2023-02-24T08:27:07.140Z,7.50
2023-02-24T08:32:11.256Z,7.55
2023-02-24T08:37:16.002Z,7.58
2023-02-24T08:42:20.545Z,7.40
2023-02-24T08:47:31.331Z,7.28
2023-02-24T08:52:35.156Z,7.32
2023-02-24T08:57:38.677Z,7.32
2023-02-24T09:02:42.804Z,7.36
2023-02-24T09:07:54.950Z,7.55
2023-02-24T09:12:58.962Z,7.66
2023-02-24T09:18:07.707Z,7.80
2023-02-24T09:23:20.449Z,7.99
2023-02-24T09:28:26.899Z,7.99
2023-02-24T09:33:42.044Z,7.89
2023-02-24T09:39:00.954Z,7.76
2023-02-24T09:44:18.790Z,7.72
2023-02-24T09:49:40.346Z,7.58
2023-02-24T09:55:23.916Z,7.45
2023-02-24T10:00:33.819Z,7.28
2023-02-24T10:05:49.447Z,7.19
2023-02-24T10:11:09.683Z,7.11
2023-02-24T10:16:24.299Z,7.01
2023-02-24T10:21:49.819Z,6.87
2023-02-24T10:27:18.279Z,6.87
2023-02-24T10:32:32.044Z,6.82
2023-02-24T10:37:35.562Z,6.70
2023-02-24T10:42:49.127Z,6.65
2023-02-24T10:48:08.931Z,6.71
2023-02-24T10:53:35.067Z,6.71
2023-02-24T10:58:44.927Z,6.71
2023-02-24T11:04:01.884Z,6.62
2023-02-24T11:09:24.105Z,6.48
2023-02-24T11:14:46.260Z,6.40
2023-02-24T11:19:56.840Z,6.28
2023-02-24T11:25:11.921Z,6.10
2023-02-24T11:30:26.619Z,5.92
2023-02-24T11:35:46.298Z,5.76
2023-02-24T11:40:58.926Z,5.76
2023-02-24T11:46:31.487Z,5.85
2023-02-24T11:51:38.001Z,5.80
2023-02-24T11:56:49.304Z,5.68
2023-02-24T12:01:57.225Z,5.49
2023-02-24T12:07:25.253Z,5.41
2023-02-24T12:12:54.163Z,5.50
2023-02-24T12:18:20.270Z,5.68
2023-02-24T12:23:30.748Z,5.66
2023-02-24T12:28:41.332Z,5.57
2023-02-24T12:34:03.492Z,5.59
2023-02-24T12:39:16.320Z,5.70
2023-02-24T12:44:27.699Z,5.80
2023-02-24T12:49:44.027Z,5.90
2023-02-24T12:55:01.262Z,6.06
2023-02-24T13:00:25.762Z,5.93
2023-02-24T13:05:29.390Z,5.70
2023-02-24T13:11:05.878Z,5.66
2023-02-24T13:16:12.504Z,5.57
2023-02-24T13:21:25.001Z,5.54
2023-02-24T13:26:31.866Z,5.39
2023-02-24T13:32:01.296Z,5.17
2023-02-24T13:37:05.030Z,5.09
2023-02-24T13:42:24.323Z,5.11
2023-02-24T13:47:45.857Z,5.08
2023-02-24T13:53:23.993Z,5.05
2023-02-24T13:58:55.367Z,4.97
2023-02-24T14:04:36.347Z,4.96
2023-02-24T14:09:51.846Z,4.84
2023-02-24T14:14:56.801Z,4.82
2023-02-24T14:20:18.128Z,4.79
2023-02-24T14:25:26.874Z,4.72
2023-02-24T14:30:41.311Z,4.56
2023-02-24T14:35:48.441Z,4.63
2023-02-24T14:40:51.960Z,4.65
2023-02-24T14:45:57.789Z,4.63
2023-02-24T14:51:35.778Z,4.52
2023-02-24T14:56:41.626Z,4.50
2023-02-24T15:02:05.392Z,4.46
2023-02-24T15:08:07.435Z,4.41
2023-02-24T15:13:19.100Z,4.35
2023-02-24T15:18:28.977Z,4.33
2023-02-24T15:23:37.404Z,4.33
2023-02-24T15:28:40.907Z,4.25
2023-02-24T15:33:47.403Z,4.25
2023-02-24T15:39:01.050Z,4.21
2023-02-24T15:44:04.665Z,4.15
2023-02-24T15:49:08.179Z,4.11
2023-02-24T15:54:15.275Z,4.07
2023-02-24T15:59:22.296Z,3.99
2023-02-24T16:04:27.790Z,3.90
2023-02-24T16:09:38.634Z,3.79
2023-02-24T16:14:43.163Z,3.56
2023-02-24T16:19:46.372Z,3.44
2023-02-24T16:24:50.195Z,3.28
2023-02-24T16:29:53.708Z,3.19
2023-02-24T16:34:57.579Z,3.13
2023-02-24T16:40:00.986Z,3.11
2023-02-24T16:45:05.075Z,3.13
2023-02-24T16:50:18.323Z,3.13
2023-02-24T16:55:22.243Z,3.10
2023-02-24T17:00:26.066Z,3.18
2023-02-24T17:05:29.482Z,3.10
2023-02-24T17:10:33.922Z,3.04
2023-02-24T17:15:37.544Z,3.02
2023-02-24T17:20:42.657Z,3.03
2023-02-24T17:25:52.149Z,3.08
2023-02-24T17:30:55.968Z,3.11
2023-02-24T17:36:00.017Z,3.16
2023-02-24T17:41:03.619Z,3.21
2023-02-24T17:46:07.473Z,3.25
2023-02-24T17:51:18.885Z,3.32
2023-02-24T17:56:22.635Z,3.35
2023-02-24T18:01:27.419Z,3.35
2023-02-24T18:06:30.608Z,3.36
2023-02-24T18:11:34.125Z,3.31
2023-02-24T18:16:37.827Z,3.29
2023-02-24T18:21:41.565Z,3.29
2023-02-24T18:26:45.121Z,3.32
2023-02-24T18:31:48.736Z,3.32
2023-02-24T18:36:53.653Z,3.32
2023-02-24T18:41:59.525Z,3.31
2023-02-24T18:47:09.740Z,3.33
2023-02-24T18:52:13.624Z,3.34
2023-02-24T18:57:17.035Z,3.35
2023-02-24T19:02:20.550Z,3.37
2023-02-24T19:14:19.099Z,3.43
2023-02-24T19:19:23.129Z,3.47
2023-02-24T19:24:26.745Z,3.58
2023-02-24T19:29:30.393Z,3.63
2023-02-24T19:34:33.873Z,3.63
2023-02-24T19:39:37.526Z,3.66
2023-02-24T19:44:41.221Z,3.64
2023-02-24T19:49:44.837Z,3.59
2023-02-24T19:54:48.598Z,3.55
2023-02-24T19:59:52.374Z,3.56
2023-02-24T20:04:55.834Z,3.61
2023-02-24T20:09:59.605Z,3.63
2023-02-24T20:15:04.282Z,3.63
2023-02-24T20:20:08.491Z,3.65
2023-02-24T20:25:12.815Z,3.65
2023-02-24T20:30:16.847Z,3.68
2023-02-24T20:35:21.337Z,3.67
2023-02-24T20:40:24.905Z,3.68
2023-02-24T20:45:29.138Z,3.67
2023-02-24T20:50:32.662Z,3.72
2023-02-24T20:55:36.574Z,3.76
2023-02-24T21:00:40.803Z,3.78
2023-02-24T21:05:45.075Z,3.78
2023-02-24T21:10:48.554Z,3.81
2023-02-24T21:15:56.299Z,3.80
2023-02-24T21:21:00.188Z,3.77
2023-02-24T21:26:04.251Z,3.77
2023-02-24T21:31:13.550Z,3.77
2023-02-24T21:36:17.194Z,3.72
2023-02-24T21:41:21.189Z,3.72
2023-02-24T21:46:28.769Z,3.73
2023-02-24T21:51:33.780Z,3.72
2023-02-24T21:56:37.291Z,3.72
2023-02-24T22:01:45.191Z,3.73
2023-02-24T22:06:48.837Z,3.76
2023-02-24T22:11:52.442Z,3.80
2023-02-24T22:16:55.856Z,3.79
2023-02-24T22:22:00.191Z,3.80
2023-02-24T22:27:04.115Z,3.83
2023-02-24T22:32:07.697Z,3.86
2023-02-24T22:37:11.597Z,3.87
2023-02-24T22:42:15.077Z,3.87
2023-02-24T22:47:18.591Z,3.87
2023-02-24T22:52:22.210Z,3.89
2023-02-24T22:57:25.828Z,3.97
2023-02-24T23:02:29.342Z,4.01
2023-02-24T23:07:33.989Z,4.00
2023-02-24T23:12:37.914Z,4.06
2023-02-24T23:17:41.525Z,4.07
2023-02-24T23:22:45.554Z,4.08
2023-02-24T23:27:49.917Z,4.12
2023-02-24T23:32:53.322Z,4.13
2023-02-24T23:37:57.023Z,4.11
2023-02-24T23:43:01.561Z,4.08
2023-02-24T23:48:05.493Z,4.07
2023-02-24T23:53:09.420Z,4.06
2023-02-24T23:58:13.031Z,4.09
